Time;durP1;ratioP1;P1;durP2;ratioP2;P2;SDS_P1;SDS_P2;PMS_P1;PMS_P2;Temp;Humidity;BMP_temperature;BMP_pressure;BME280_temperature;BME280_humidity;BME280_pressure;Samples;Min_cycle;Max_cycle;Signal;HPM_P1;HPM_P2
2023/10/11 00:00:33;;;;;;;11.10;5.27;;;;;;;15.34;73.76;155300.28;5068549;28;20436;-80
2023/10/11 00:03:06;;;;;;;8.43;5.47;;;;;;;15.30;74.22;155291.22;5068907;28;20504;-80
2023/10/11 00:05:39;;;;;;;8.53;5.83;;;;;;;15.27;74.40;155283.44;5092179;28;20474;-80
2023/10/11 00:08:07;;;;;;;7.40;5.27;;;;;;;15.26;74.73;155280.81;5052573;28;20444;-80
2023/10/11 00:10:42;;;;;;;6.83;4.80;;;;;;;15.24;74.74;155275.63;5071173;28;20434;-80
2023/10/11 00:13:10;;;;;;;7.17;5.03;;;;;;;15.21;74.82;155267.81;5072989;28;20588;-80
2023/10/11 00:15:37;;;;;;;7.67;4.80;;;;;;;15.20;74.97;155265.19;5072388;28;20448;-80
2023/10/11 00:18:05;;;;;;;10.90;5.00;;;;;;;15.21;74.54;155269.13;5072666;28;20464;-80
2023/10/11 00:20:47;;;;;;;7.57;5.13;;;;;;;15.20;74.70;155266.50;5069460;28;20446;-81
2023/10/11 00:23:15;;;;;;;7.40;4.63;;;;;;;15.20;74.42;155265.19;5070791;28;20591;-80
2023/10/11 00:25:44;;;;;;;8.63;5.57;;;;;;;15.18;74.40;155260.00;5083595;28;20448;-80
2023/10/11 00:28:11;;;;;;;7.20;5.10;;;;;;;15.16;74.51;155254.81;5072172;28;20460;-80
2023/10/11 00:30:39;;;;;;;8.90;5.17;;;;;;;15.16;74.71;155254.81;5071950;28;20998;-80
2023/10/11 00:33:08;;;;;;;7.13;4.90;;;;;;;15.16;74.88;155254.81;5090895;28;20940;-81
2023/10/11 00:35:44;;;;;;;8.30;4.50;;;;;;;15.15;74.99;155253.53;5053341;28;20486;-80
2023/10/11 00:38:18;;;;;;;6.37;4.73;;;;;;;15.13;75.35;155247.03;5068040;28;20865;-80
2023/10/11 00:40:46;;;;;;;8.87;4.53;;;;;;;15.13;75.37;155248.34;5067803;28;20907;-80
2023/10/11 00:43:16;;;;;;;7.50;5.00;;;;;;;15.10;75.63;155240.53;5083149;28;20476;-81
2023/10/11 00:45:43;;;;;;;6.83;5.90;;;;;;;15.08;75.89;155235.34;5085436;28;20485;-80
2023/10/11 00:48:13;;;;;;;8.10;5.10;;;;;;;15.06;76.34;155228.84;5098288;28;20525;-80
2023/10/11 00:50:40;;;;;;;9.70;6.20;;;;;;;15.04;76.42;155224.94;5072136;28;20437;-80
2023/10/11 00:53:09;;;;;;;9.13;5.33;;;;;;;15.04;76.40;155224.94;5070514;28;20444;-80
2023/10/11 00:55:36;;;;;;;8.40;5.50;;;;;;;15.05;76.41;155226.22;5068238;28;20449;-80
2023/10/11 00:58:04;;;;;;;5.80;4.67;;;;;;;15.06;75.96;155228.84;5073079;28;20515;-80
2023/10/11 01:00:36;;;;;;;12.07;5.80;;;;;;;15.06;76.14;155230.09;5050727;28;20847;-80
2023/10/11 01:03:07;;;;;;;8.93;5.40;;;;;;;15.05;76.36;155227.53;5063217;28;20484;-80
2023/10/11 01:05:43;;;;;;;7.83;5.37;;;;;;;15.06;76.22;155228.84;5062272;28;20457;-80
2023/10/11 01:08:10;;;;;;;14.43;5.80;;;;;;;15.04;76.38;155224.94;5060078;28;20950;-80
2023/10/11 01:10:37;;;;;;;8.80;4.50;;;;;;;15.04;76.43;155223.63;5060093;28;20456;-80
2023/10/11 01:13:04;;;;;;;9.53;6.13;;;;;;;15.02;76.64;155219.75;5084615;28;20491;-80
2023/10/11 01:15:33;;;;;;;8.50;5.20;;;;;;;14.99;77.03;155211.94;5076910;28;20468;-80
2023/10/11 01:17:59;;;;;;;8.70;5.67;;;;;;;14.96;77.17;155202.81;5089549;28;20559;-80
2023/10/11 01:20:29;;;;;;;7.70;5.37;;;;;;;14.94;77.15;155198.94;5051655;28;20480;-80
2023/10/11 01:22:57;;;;;;;7.90;5.27;;;;;;;14.92;77.44;155192.47;5089093;28;20476;-80
2023/10/11 01:25:24;;;;;;;6.40;5.23;;;;;;;14.90;77.66;155188.56;5053550;28;20429;-80
2023/10/11 01:27:50;;;;;;;7.73;5.90;;;;;;;14.86;77.68;155178.16;5068877;28;20547;-80
2023/10/11 01:30:17;;;;;;;6.87;5.50;;;;;;;14.84;77.77;155171.66;5059830;28;20457;-79
2023/10/11 01:32:44;;;;;;;9.27;5.47;;;;;;;14.80;77.75;155161.31;5083312;28;20440;-80
2023/10/11 01:35:19;;;;;;;8.50;5.40;;;;;;;14.76;78.09;155152.19;5051436;28;20457;-80
2023/10/11 01:37:48;;;;;;;10.03;5.70;;;;;;;14.73;78.58;155143.09;5065249;28;20468;-81
2023/10/11 01:40:21;;;;;;;7.83;5.27;;;;;;;14.70;78.51;155136.59;5052832;28;20457;-80
2023/10/11 01:42:49;;;;;;;11.03;5.60;;;;;;;14.69;78.78;155132.72;5071416;28;20473;-80
2023/10/11 01:45:17;;;;;;;8.63;5.10;;;;;;;14.65;78.91;155123.59;5089266;28;20443;-80
2023/10/11 01:47:46;;;;;;;9.43;5.57;;;;;;;14.63;78.96;155118.41;5050128;28;20453;-80
2023/10/11 01:50:13;;;;;;;8.67;5.37;;;;;;;14.63;79.47;155118.41;5072539;28;20457;-80
2023/10/11 01:52:40;;;;;;;9.27;6.97;;;;;;;14.60;79.87;155110.63;5043098;28;20464;-79
2023/10/11 01:55:10;;;;;;;9.90;5.97;;;;;;;14.59;79.98;155108.00;5097595;28;20930;-80
2023/10/11 01:57:39;;;;;;;11.13;6.67;;;;;;;14.55;80.08;155098.94;5066806;28;20481;-79
2023/10/11 02:00:13;;;;;;;11.30;5.53;;;;;;;14.52;80.12;155089.84;5068607;28;20457;-79
2023/10/11 02:02:45;;;;;;;8.80;5.60;;;;;;;14.49;80.08;155083.34;5053380;28;20473;-80
2023/10/11 02:05:15;;;;;;;10.53;6.07;;;;;;;14.46;80.14;155075.53;5044400;28;20459;-79
2023/10/11 02:07:42;;;;;;;8.00;5.80;;;;;;;14.43;80.17;155066.44;5077615;28;20454;-79
2023/10/11 02:10:12;;;;;;;13.50;6.27;;;;;;;14.42;80.12;155065.19;5079565;28;20491;-79
2023/10/11 02:12:45;;;;;;;11.67;5.40;;;;;;;14.42;80.02;155065.19;5065174;28;20477;-79
2023/10/11 02:15:21;;;;;;;11.03;6.10;;;;;;;14.45;80.08;155071.69;5053751;28;20456;-79
2023/10/11 02:17:49;;;;;;;13.53;7.03;;;;;;;14.41;80.28;155062.56;5105474;28;20531;-79
2023/10/11 02:20:20;;;;;;;8.23;5.97;;;;;;;14.40;80.32;155059.94;5050553;28;20445;-79
2023/10/11 02:22:50;;;;;;;13.83;7.37;;;;;;;14.33;81.26;155041.78;5052328;28;20477;-79
2023/10/11 02:25:17;;;;;;;7.57;5.80;;;;;;;14.29;81.03;155031.38;5045662;28;20782;-79
2023/10/11 02:27:45;;;;;;;11.63;6.83;;;;;;;14.26;81.40;155023.56;5076558;28;20459;-79
2023/10/11 02:30:19;;;;;;;16.70;8.70;;;;;;;14.26;81.54;155023.56;5068874;28;20429;-80
2023/10/11 02:32:45;;;;;;;10.43;6.37;;;;;;;14.23;81.71;155014.47;5069489;28;20804;-79
2023/10/11 02:35:13;;;;;;;8.77;5.57;;;;;;;14.19;81.75;155005.34;5068658;28;20445;-79
2023/10/11 02:37:40;;;;;;;7.30;5.37;;;;;;;14.14;82.54;154992.38;5050563;28;20453;-79
2023/10/11 02:40:09;;;;;;;11.70;5.53;;;;;;;14.13;82.81;154988.50;5070704;28;20445;-79
2023/10/11 02:42:36;;;;;;;12.13;6.43;;;;;;;14.12;83.17;154985.88;5068264;28;20926;-79
2023/10/11 02:45:07;;;;;;;7.90;5.50;;;;;;;14.11;83.12;154984.59;5069388;28;20458;-79
2023/10/11 02:47:35;;;;;;;10.50;5.60;;;;;;;14.14;83.12;154992.38;5049647;28;20450;-79
2023/10/11 02:50:07;;;;;;;9.33;5.97;;;;;;;14.14;82.46;154991.13;5057996;28;20477;-78
2023/10/11 02:52:36;;;;;;;8.27;6.07;;;;;;;14.11;82.58;154984.59;5052397;28;20421;-80
2023/10/11 02:55:12;;;;;;;8.37;5.50;;;;;;;14.12;82.53;154987.19;5065802;28;20537;-79
2023/10/11 02:57:40;;;;;;;9.03;5.60;;;;;;;14.14;82.16;154991.13;5100147;28;20464;-78
2023/10/11 03:00:21;;;;;;;8.10;5.23;;;;;;;14.15;82.14;154993.69;5055745;28;20521;-79
2023/10/11 03:02:54;;;;;;;6.40;5.07;;;;;;;14.13;82.41;154989.81;5050733;28;20457;-80
2023/10/11 03:05:26;;;;;;;9.30;5.67;;;;;;;14.11;82.33;154984.59;5041648;28;20470;-79
2023/10/11 03:07:55;;;;;;;7.77;4.87;;;;;;;14.12;82.33;154985.88;5062223;28;20758;-79
2023/10/11 03:10:22;;;;;;;9.83;5.97;;;;;;;14.10;82.59;154980.72;5068730;28;20881;-79
2023/10/11 03:12:51;;;;;;;7.30;5.60;;;;;;;14.10;83.03;154982.03;5048870;28;20431;-80
2023/10/11 03:15:20;;;;;;;7.60;5.33;;;;;;;14.07;83.23;154974.22;5070556;28;20502;-79
2023/10/11 03:17:52;;;;;;;8.10;5.70;;;;;;;14.06;83.76;154970.34;5082269;28;20450;-79
2023/10/11 03:20:27;;;;;;;6.77;5.80;;;;;;;14.07;83.94;154972.91;5063020;28;20457;-79
2023/10/11 03:22:53;;;;;;;6.70;5.00;;;;;;;14.03;83.93;154965.13;5103259;28;20464;-80
2023/10/11 03:25:21;;;;;;;8.93;5.87;;;;;;;14.01;84.03;154959.94;5068273;28;20456;-79
2023/10/11 03:27:49;;;;;;;7.07;5.43;;;;;;;14.02;84.05;154961.25;5099983;28;20903;-79
2023/10/11 03:30:16;;;;;;;11.10;5.20;;;;;;;14.02;84.39;154961.25;5056900;28;20465;-79
2023/10/11 03:32:45;;;;;;;11.13;5.97;;;;;;;14.04;84.46;154966.41;5083123;28;20535;-80
2023/10/11 03:35:16;;;;;;;8.47;5.40;;;;;;;14.04;84.54;154966.41;5103623;28;20457;-79
2023/10/11 03:37:57;;;;;;;8.43;5.77;;;;;;;14.03;84.48;154965.13;5047860;28;20814;-80
2023/10/11 03:40:34;;;;;;;8.87;5.30;;;;;;;14.04;84.09;154966.41;5058675;28;20987;-79
2023/10/11 03:43:03;;;;;;;9.10;6.27;;;;;;;14.03;84.42;154963.84;5090996;28;20469;-79
2023/10/11 03:45:34;;;;;;;12.00;5.80;;;;;;;14.01;84.95;154959.94;5072626;28;20444;-79
2023/10/11 03:48:09;;;;;;;9.40;5.20;;;;;;;13.99;84.54;154953.44;5064343;28;20934;-79
2023/10/11 03:50:37;;;;;;;9.30;5.77;;;;;;;13.97;84.83;154949.56;5067146;28;20448;-79
2023/10/11 03:53:10;;;;;;;7.77;5.40;;;;;;;13.95;84.79;154943.09;5070822;28;20441;-79
2023/10/11 03:55:45;;;;;;;10.03;5.97;;;;;;;13.92;85.22;154935.28;5053335;28;20828;-78
2023/10/11 03:58:11;;;;;;;11.97;6.30;;;;;;;13.89;84.95;154927.50;5079039;28;20477;-79
2023/10/11 04:00:46;;;;;;;7.10;5.80;;;;;;;13.88;85.00;154924.88;5088489;28;20448;-79
2023/10/11 04:03:19;;;;;;;7.00;4.90;;;;;;;13.86;84.94;154921.00;5083982;28;20458;-79
2023/10/11 04:05:47;;;;;;;8.37;5.47;;;;;;;13.85;85.45;154918.38;5044115;28;20468;-79
2023/10/11 04:08:21;;;;;;;9.93;5.53;;;;;;;13.82;85.57;154909.34;5081937;28;20820;-79
2023/10/11 04:10:49;;;;;;;9.03;5.70;;;;;;;13.78;85.40;154898.91;5070443;28;20449;-79
2023/10/11 04:13:18;;;;;;;9.37;6.23;;;;;;;13.76;85.23;154893.75;5071861;28;20441;-79
2023/10/11 04:15:49;;;;;;;6.50;5.30;;;;;;;13.75;85.57;154891.13;5086667;28;20542;-79
2023/10/11 04:18:32;;;;;;;7.57;5.47;;;;;;;13.73;85.68;154887.25;5091191;28;20488;-78
2023/10/11 04:21:14;;;;;;;10.87;5.40;;;;;;;13.68;85.50;154874.28;5058700;28;20985;-79
2023/10/11 04:23:42;;;;;;;10.13;5.30;;;;;;;13.65;85.94;154866.50;5075143;28;20552;-79
2023/10/11 04:26:23;;;;;;;6.40;5.37;;;;;;;13.60;86.10;154852.22;5074414;28;20441;-79
2023/10/11 04:28:52;;;;;;;8.20;5.57;;;;;;;13.56;86.52;154843.09;5085342;28;20892;-80
2023/10/11 04:31:28;;;;;;;8.80;5.90;;;;;;;13.55;86.36;154839.22;5087453;28;20472;-80
2023/10/11 04:33:58;;;;;;;10.70;5.77;;;;;;;13.56;86.56;154841.78;5071727;28;20432;-80
2023/10/11 04:36:25;;;;;;;7.50;5.27;;;;;;;13.54;86.54;154836.63;5087503;28;20495;-81
2023/10/11 04:38:52;;;;;;;8.93;6.20;;;;;;;13.52;86.48;154831.44;5077600;28;20464;-79
2023/10/11 04:41:19;;;;;;;6.67;5.90;;;;;;;13.50;86.62;154826.25;5071905;28;20429;-80
2023/10/11 04:43:51;;;;;;;6.60;5.13;;;;;;;13.50;86.64;154826.25;5065872;28;20553;-80
2023/10/11 04:46:18;;;;;;;9.37;6.10;;;;;;;13.47;86.80;154818.47;5098315;28;21090;-80
2023/10/11 04:48:45;;;;;;;11.03;6.60;;;;;;;13.46;86.81;154815.84;5045883;28;20928;-80
2023/10/11 04:51:21;;;;;;;10.27;5.70;;;;;;;13.44;86.82;154811.97;5071144;28;20545;-80
2023/10/11 04:53:56;;;;;;;8.87;5.93;;;;;;;13.40;86.98;154802.88;5097059;28;20542;-80
2023/10/11 04:59:19;;;;;;;8.40;6.60;;;;;;;13.35;87.29;154789.91;5055047;28;20972;-80
2023/10/11 05:01:58;;;;;;;8.20;6.53;;;;;;;13.31;87.33;154779.56;5059573;28;20468;-80
2023/10/11 05:04:28;;;;;;;7.23;5.40;;;;;;;13.29;87.60;154774.31;5082266;28;20803;-80
2023/10/11 05:06:56;;;;;;;8.00;6.30;;;;;;;13.27;87.53;154769.13;5071865;28;20477;-80
2023/10/11 05:09:29;;;;;;;10.63;6.67;;;;;;;13.26;87.45;154765.28;5074771;28;20468;-80
2023/10/11 05:12:07;;;;;;;10.17;6.90;;;;;;;13.25;87.82;154763.97;5062475;28;20809;-80
2023/10/11 05:14:37;;;;;;;12.20;6.27;;;;;;;13.23;87.92;154758.78;5073371;28;20442;-80
2023/10/11 05:17:31;;;;;;;7.10;5.93;;;;;;;13.20;87.90;154749.69;5074322;28;20777;-80
2023/10/11 05:20:20;;;;;;;8.93;6.80;;;;;;;13.18;87.88;154745.81;5074040;28;20528;-80
2023/10/11 05:22:52;;;;;;;10.40;6.50;;;;;;;13.16;87.88;154740.59;5073433;28;20448;-80
2023/10/11 05:28:07;;;;;;;9.87;7.33;;;;;;;13.13;88.21;154731.53;5056845;28;20782;-80
2023/10/11 05:30:33;;;;;;;9.43;6.70;;;;;;;13.12;88.09;154730.22;5057766;28;20794;-81
2023/10/11 05:33:15;;;;;;;7.67;6.07;;;;;;;13.11;88.03;154727.63;5057256;28;20448;-80
2023/10/11 05:36:13;;;;;;;11.47;7.30;;;;;;;13.09;88.49;154722.44;5074702;28;20709;-80
2023/10/11 05:52:25;;;;;;;9.53;6.50;;;;;;;13.02;88.75;154704.25;5065218;28;20480;-80
2023/10/11 05:54:54;;;;;;;8.63;6.40;;;;;;;13.02;88.96;154704.25;5074751;28;20453;-79
2023/10/11 05:57:23;;;;;;;9.87;7.10;;;;;;;13.01;88.93;154701.63;5065869;28;20789;-79
2023/10/11 05:59:50;;;;;;;9.73;6.80;;;;;;;13.01;89.18;154701.63;5035302;28;20446;-80
2023/10/11 06:02:18;;;;;;;8.97;6.30;;;;;;;13.03;89.25;154706.81;5050217;28;20907;-80
2023/10/11 06:04:45;;;;;;;10.00;6.60;;;;;;;13.05;89.16;154712.00;5034186;28;20536;-79
2023/10/11 06:07:13;;;;;;;8.70;6.20;;;;;;;13.05;89.10;154712.00;5050269;28;21034;-80
2023/10/11 06:09:43;;;;;;;17.23;8.63;;;;;;;13.08;88.73;154718.56;5036460;28;20443;-80
2023/10/11 06:12:22;;;;;;;10.90;6.27;;;;;;;13.16;89.28;154740.59;5036180;28;21031;-80
2023/10/11 06:14:50;;;;;;;7.50;5.47;;;;;;;13.27;89.13;154767.84;5034901;28;20451;-80
2023/10/11 06:17:21;;;;;;;13.50;6.53;;;;;;;13.42;88.58;154808.06;5034019;28;20448;-80
2023/10/11 06:19:53;;;;;;;9.37;5.97;;;;;;;13.57;88.01;154845.72;5032466;28;20510;-80
2023/10/11 06:22:21;;;;;;;12.70;6.60;;;;;;;13.72;87.35;154884.63;5033598;28;20820;-80
2023/10/11 06:24:48;;;;;;;10.57;5.57;;;;;;;13.90;86.74;154930.06;5033840;28;20586;-80
2023/10/11 06:30:06;;;;;;;9.10;6.27;;;;;;;14.36;85.19;155049.59;5021149;28;20493;-80
2023/10/11 06:32:35;;;;;;;12.47;6.50;;;;;;;14.60;84.17;155111.94;5050645;28;20458;-80
2023/10/11 06:35:04;;;;;;;9.20;5.87;;;;;;;14.84;82.87;155171.66;5035310;28;20448;-80
2023/10/11 06:37:34;;;;;;;11.03;5.57;;;;;;;15.11;81.78;155243.16;5048568;28;20448;-80
2023/10/11 06:40:13;;;;;;;10.30;7.43;;;;;;;15.37;80.34;155309.41;5032475;28;20455;-80
2023/10/11 06:42:42;;;;;;;11.33;5.40;;;;;;;15.64;79.17;155379.66;5031843;28;20443;-80
2023/10/11 06:45:16;;;;;;;9.93;5.70;;;;;;;15.89;78.15;155443.31;5050114;28;20553;-80
2023/10/11 06:47:47;;;;;;;13.57;5.90;;;;;;;16.11;76.96;155499.25;5048818;28;20455;-80
2023/10/11 06:50:14;;;;;;;14.53;5.43;;;;;;;16.30;76.21;155549.97;5033572;28;20509;-80
2023/10/11 06:52:43;;;;;;;12.60;5.40;;;;;;;16.51;75.29;155603.28;5033692;28;20563;-80
2023/10/11 06:55:16;;;;;;;10.37;6.70;;;;;;;16.71;73.73;155654.03;5027695;28;21036;-80
2023/10/11 06:57:51;;;;;;;12.70;6.30;;;;;;;16.93;73.44;155711.31;5048711;28;20839;-80
2023/10/11 07:00:23;;;;;;;12.40;7.13;;;;;;;17.11;71.97;155758.16;5042346;28;20454;-80
2023/10/11 07:02:52;;;;;;;9.73;5.97;;;;;;;17.35;71.29;155819.31;5039486;28;20455;-80
2023/10/11 07:05:20;;;;;;;9.60;6.70;;;;;;;17.59;70.35;155883.16;5048966;28;20902;-79
2023/10/11 07:07:48;;;;;;;9.30;6.20;;;;;;;17.79;69.40;155933.91;5033715;28;20459;-80
2023/10/11 07:13:07;;;;;;;10.03;5.73;;;;;;;18.34;67.45;156074.56;5029440;28;20480;-84
2023/10/11 07:15:41;;;;;;;11.03;6.10;;;;;;;18.61;66.38;156144.97;5020580;28;20566;-85
2023/10/11 07:18:11;;;;;;;8.57;6.40;;;;;;;18.89;65.28;156217.91;5038716;28;20566;-85
2023/10/11 07:20:48;;;;;;;9.10;5.90;;;;;;;19.12;64.20;156277.84;5039592;28;20456;-86
2023/10/11 07:23:19;;;;;;;10.70;5.60;;;;;;;19.36;63.43;156340.41;5036992;28;20445;-86
2023/10/11 07:25:49;;;;;;;8.80;5.13;;;;;;;19.65;62.51;156413.44;5052448;28;20464;-85
2023/10/11 07:28:35;;;;;;;7.70;5.63;;;;;;;19.89;61.55;156477.34;5039362;28;20970;-86
2023/10/11 07:31:03;;;;;;;7.23;6.30;;;;;;;20.11;60.37;156533.41;5052251;28;20884;-86
2023/10/11 07:33:30;;;;;;;7.47;5.13;;;;;;;20.33;59.87;156589.56;5037502;28;20450;-86
2023/10/11 07:35:59;;;;;;;11.87;5.80;;;;;;;20.59;59.22;156657.38;5035855;28;20462;-86
2023/10/11 07:38:32;;;;;;;13.77;5.77;;;;;;;20.80;57.84;156710.84;5054166;28;20448;-86
2023/10/11 07:41:04;;;;;;;11.60;5.40;;;;;;;21.07;57.46;156781.38;5036561;28;20520;-85
2023/10/11 07:43:33;;;;;;;6.03;4.80;;;;;;;21.32;56.31;156846.63;5036900;28;20546;-81
2023/10/11 07:46:02;;;;;;;8.20;5.30;;;;;;;21.58;56.06;156914.47;5046325;28;20494;-81
2023/10/11 07:48:32;;;;;;;6.67;5.70;;;;;;;21.75;54.88;156958.91;5032980;28;20477;-81
2023/10/11 07:51:03;;;;;;;10.57;6.20;;;;;;;21.93;54.50;157003.31;5053535;28;20442;-81
2023/10/11 07:53:29;;;;;;;9.17;5.30;;;;;;;22.11;53.73;157050.31;5038804;28;20500;-81
2023/10/11 07:55:59;;;;;;;9.00;5.30;;;;;;;22.29;53.50;157097.38;5038167;28;20454;-81
2023/10/11 07:58:32;;;;;;;7.87;4.33;;;;;;;22.18;53.66;157068.63;5037347;28;21016;-81
2023/10/11 08:01:15;;;;;;;7.73;4.93;;;;;;;21.69;54.49;156941.91;5036192;28;20456;-81
2023/10/11 08:03:44;;;;;;;13.47;5.00;;;;;;;21.13;55.31;156797.00;5057894;28;20877;-81
2023/10/11 08:06:13;;;;;;;10.43;4.83;;;;;;;20.78;55.13;156705.66;5042445;28;20944;-81
2023/10/11 08:08:40;;;;;;;4.97;3.90;;;;;;;20.53;56.49;156643.03;5051880;28;20508;-81
2023/10/11 08:11:18;;;;;;;8.30;4.50;;;;;;;20.33;56.51;156590.81;5036465;28;20986;-81
2023/10/11 08:13:47;;;;;;;8.50;4.37;;;;;;;20.23;57.61;156563.38;5052444;28;20450;-81
2023/10/11 08:16:18;;;;;;;8.40;5.30;;;;;;;20.16;57.59;156545.13;5051383;28;20971;-81
2023/10/11 08:18:46;;;;;;;8.17;5.03;;;;;;;20.06;58.36;156520.38;5034349;28;20561;-80
2023/10/11 08:21:13;;;;;;;10.07;4.67;;;;;;;19.96;58.23;156494.31;5036098;28;20479;-80
2023/10/11 08:23:42;;;;;;;10.37;4.80;;;;;;;19.88;59.06;156474.69;5040055;28;20447;-80
2023/10/11 08:26:14;;;;;;;9.50;5.03;;;;;;;19.76;60.54;156442.13;5051899;28;20455;-81
2023/10/11 08:28:47;;;;;;;9.10;6.73;;;;;;;19.67;61.06;156418.69;5043488;28;20558;-81
2023/10/11 08:31:35;;;;;;;10.53;5.43;;;;;;;19.65;60.65;156413.44;5051984;28;20470;-80
2023/10/11 08:34:03;;;;;;;8.07;4.50;;;;;;;19.67;60.99;156418.69;5054928;28;20443;-80
2023/10/11 08:36:33;;;;;;;9.33;5.30;;;;;;;19.69;61.13;156425.19;5035008;28;20447;-81
2023/10/11 08:39:03;;;;;;;8.57;4.70;;;;;;;19.69;61.78;156423.88;5052134;28;20947;-80
2023/10/11 08:41:31;;;;;;;7.10;4.80;;;;;;;19.69;61.56;156425.19;5054113;28;20444;-80
2023/10/11 08:43:59;;;;;;;7.10;4.90;;;;;;;19.77;62.51;156446.06;5036423;28;20476;-81
2023/10/11 08:46:29;;;;;;;7.17;4.57;;;;;;;19.82;62.50;156457.78;5035251;28;20459;-80
2023/10/11 08:49:00;;;;;;;14.07;5.10;;;;;;;19.88;61.54;156473.44;5051811;28;20443;-81
2023/10/11 08:51:36;;;;;;;6.83;4.70;;;;;;;19.91;61.41;156482.53;5034296;28;20451;-80
2023/10/11 08:54:11;;;;;;;9.60;4.80;;;;;;;19.97;61.84;156496.88;5051563;28;20451;-80
2023/10/11 08:56:38;;;;;;;11.43;4.30;;;;;;;20.04;61.12;156516.44;5036532;28;20508;-81
2023/10/11 08:59:05;;;;;;;8.83;4.30;;;;;;;20.07;61.41;156522.94;5036705;28;20521;-80
2023/10/11 09:01:36;;;;;;;6.47;4.77;;;;;;;20.13;62.07;156538.63;5034951;28;20550;-80
2023/10/11 09:04:06;;;;;;;7.33;4.57;;;;;;;20.12;60.96;156536.00;5028531;28;20571;-80
2023/10/11 09:06:34;;;;;;;8.07;4.53;;;;;;;20.18;60.26;156550.34;5046226;28;20452;-80
2023/10/11 09:09:03;;;;;;;9.17;4.97;;;;;;;20.25;60.13;156570.00;5051015;28;20440;-80
2023/10/11 09:11:31;;;;;;;6.60;4.50;;;;;;;20.27;60.15;156575.19;5036508;28;20446;-80
2023/10/11 09:14:12;;;;;;;8.43;4.90;;;;;;;20.28;61.02;156576.50;5051781;28;20485;-80
2023/10/11 09:16:40;;;;;;;7.60;4.90;;;;;;;20.31;60.22;156584.31;5032335;28;20912;-80
2023/10/11 09:19:09;;;;;;;8.47;4.90;;;;;;;20.38;59.92;156603.91;5034555;28;20846;-80
2023/10/11 09:21:36;;;;;;;6.83;4.17;;;;;;;20.43;59.54;156616.94;5037869;28;20930;-80
2023/10/11 09:24:04;;;;;;;16.50;5.30;;;;;;;20.47;60.04;156626.03;5037311;28;20458;-80
2023/10/11 09:26:34;;;;;;;9.33;4.27;;;;;;;20.47;60.03;156627.34;5035265;28;20460;-80
2023/10/11 09:29:02;;;;;;;8.73;4.90;;;;;;;20.56;60.15;156649.53;5037384;28;20459;-80
2023/10/11 09:31:31;;;;;;;8.83;4.57;;;;;;;20.57;59.73;156653.44;5034998;28;20549;-80
2023/10/11 09:34:02;;;;;;;8.63;5.67;;;;;;;20.59;59.69;156658.69;5041794;28;20573;-80
2023/10/11 09:36:29;;;;;;;7.53;5.07;;;;;;;20.62;60.42;156666.47;5035334;28;20445;-80
2023/10/11 09:38:56;;;;;;;18.83;6.10;;;;;;;20.65;59.72;156674.31;5038778;28;20450;-80
2023/10/11 09:41:24;;;;;;;9.47;5.00;;;;;;;20.68;59.98;156680.84;5051492;28;20447;-80
2023/10/11 09:43:54;;;;;;;10.20;4.80;;;;;;;20.70;59.68;156686.09;5033690;28;20550;-80
2023/10/11 09:46:22;;;;;;;8.73;4.43;;;;;;;20.81;59.12;156714.75;5035866;28;20439;-80
2023/10/11 09:48:49;;;;;;;12.50;5.37;;;;;;;20.99;57.28;156760.44;5034426;28;20455;-80
2023/10/11 09:51:17;;;;;;;9.47;4.30;;;;;;;21.13;56.67;156798.31;5037706;28;20508;-80
2023/10/11 09:53:49;;;;;;;12.40;5.07;;;;;;;21.26;57.32;156830.94;5042897;28;20455;-80
2023/10/11 09:56:31;;;;;;;10.40;4.47;;;;;;;21.24;56.51;156825.72;5034844;28;20479;-80
2023/10/11 09:59:06;;;;;;;12.60;5.13;;;;;;;21.21;57.34;156819.22;5049842;28;20470;-80
2023/10/11 10:01:38;;;;;;;8.00;4.97;;;;;;;21.39;55.03;156863.59;5033945;28;20516;-80
2023/10/11 10:04:06;;;;;;;6.83;4.30;;;;;;;21.55;54.95;156906.66;5051209;28;20463;-80
2023/10/11 10:06:34;;;;;;;9.00;4.30;;;;;;;21.63;54.13;156927.53;5034727;28;20815;-80
2023/10/11 10:09:25;;;;;;;13.57;4.70;;;;;;;21.68;53.85;156939.31;5019158;28;20521;-80
2023/10/11 10:12:20;;;;;;;6.93;4.17;;;;;;;21.63;53.68;156927.53;5050394;28;20448;-80
2023/10/11 10:14:50;;;;;;;9.20;3.93;;;;;;;21.62;52.75;156924.97;5034455;28;20473;-80
2023/10/11 10:17:18;;;;;;;8.53;5.23;;;;;;;21.83;52.16;156979.78;5049983;28;20510;-80
2023/10/11 10:19:45;;;;;;;9.50;4.17;;;;;;;21.99;52.12;157019.00;5049877;28;20463;-80
2023/10/11 10:22:19;;;;;;;8.30;4.13;;;;;;;22.06;52.40;157038.56;5050725;28;20446;-80
2023/10/11 10:24:47;;;;;;;8.87;4.57;;;;;;;21.97;51.45;157015.09;5045865;28;20472;-80
2023/10/11 10:27:37;;;;;;;9.87;4.27;;;;;;;21.93;52.56;157003.31;5033393;28;20876;-80
2023/10/11 10:30:08;;;;;;;7.77;4.13;;;;;;;22.02;51.76;157026.84;5051359;28;20455;-80
2023/10/11 10:32:34;;;;;;;8.10;5.17;;;;;;;22.08;52.09;157042.53;5050820;28;20443;-80
2023/10/11 10:35:27;;;;;;;7.13;3.97;;;;;;;22.09;52.27;157045.09;5034859;28;20506;-80
2023/10/11 10:37:56;;;;;;;7.73;4.40;;;;;;;22.00;52.59;157022.88;5032263;28;21018;-80
2023/10/11 10:40:27;;;;;;;6.43;4.10;;;;;;;21.94;53.95;157007.25;5035323;28;20544;-79
2023/10/11 10:43:20;;;;;;;9.30;4.73;;;;;;;21.85;53.17;156985.00;5034880;28;20434;-79
2023/10/11 10:45:48;;;;;;;9.73;4.60;;;;;;;21.92;52.19;157000.72;5048944;28;20467;-80
2023/10/11 10:48:15;;;;;;;7.33;3.83;;;;;;;21.89;52.82;156994.19;5035865;28;20469;-79
2023/10/11 10:50:47;;;;;;;7.83;4.20;;;;;;;21.93;52.04;157003.31;5036917;28;20474;-80
2023/10/11 10:53:15;;;;;;;10.70;4.50;;;;;;;21.91;53.91;156999.41;5035868;28;20451;-80
2023/10/11 10:55:42;;;;;;;8.10;4.27;;;;;;;21.94;52.58;157007.25;5032450;28;20529;-80
2023/10/11 10:58:09;;;;;;;9.93;4.70;;;;;;;21.91;52.98;156999.41;5032891;28;20885;-80
2023/10/11 11:00:40;;;;;;;6.93;4.10;;;;;;;21.98;52.41;157017.69;5031690;28;20458;-79
2023/10/11 11:03:17;;;;;;;6.00;3.67;;;;;;;21.98;51.86;157016.38;5041972;28;20461;-80
2023/10/11 11:05:55;;;;;;;9.40;4.20;;;;;;;22.00;53.04;157021.63;5048066;28;20475;-80
2023/10/11 11:08:25;;;;;;;10.03;4.43;;;;;;;22.05;52.30;157034.69;5048752;28;20455;-80
2023/10/11 11:10:55;;;;;;;8.07;4.70;;;;;;;22.09;51.40;157045.09;5031325;28;20458;-80
2023/10/11 11:13:25;;;;;;;9.70;4.07;;;;;;;22.10;51.92;157049.06;5027981;28;20783;-80
2023/10/11 11:15:55;;;;;;;10.10;4.63;;;;;;;22.09;52.66;157045.09;5017817;28;20538;-80
2023/10/11 11:18:33;;;;;;;7.40;4.40;;;;;;;22.07;52.31;157041.22;5049648;28;20444;-80
2023/10/11 11:21:17;;;;;;;12.10;4.20;;;;;;;22.05;52.94;157036.00;5060040;28;20478;-80
2023/10/11 11:23:45;;;;;;;11.80;4.00;;;;;;;22.15;52.17;157060.78;5040506;28;20470;-79
2023/10/11 11:26:15;;;;;;;8.73;4.53;;;;;;;22.21;52.38;157076.47;5026531;28;20475;-80
2023/10/11 11:28:42;;;;;;;8.80;4.27;;;;;;;22.23;52.09;157083.00;5032544;28;20447;-80
2023/10/11 11:31:13;;;;;;;9.97;4.57;;;;;;;22.24;52.59;157084.31;5034192;28;20458;-81
2023/10/11 11:33:47;;;;;;;7.83;4.10;;;;;;;22.26;51.04;157090.84;5033144;28;20551;-80
2023/10/11 11:36:30;;;;;;;8.10;4.20;;;;;;;22.31;50.93;157102.59;5049750;28;20802;-80
2023/10/11 11:39:16;;;;;;;7.30;4.33;;;;;;;22.35;51.13;157114.31;5035024;28;20439;-80
2023/10/11 11:41:44;;;;;;;13.67;4.77;;;;;;;22.32;51.11;157105.16;5050476;28;20447;-80
2023/10/11 11:44:19;;;;;;;7.90;4.77;;;;;;;22.36;51.52;157115.63;5032652;28;20460;-80
2023/10/11 11:46:50;;;;;;;9.40;4.70;;;;;;;22.39;51.98;157123.47;5034002;28;20462;-80
2023/10/11 11:49:20;;;;;;;7.60;3.90;;;;;;;22.36;51.25;157116.97;5050801;28;20450;-80
2023/10/11 11:51:50;;;;;;;10.73;4.80;;;;;;;22.42;51.80;157131.31;5027266;28;20452;-80
2023/10/11 11:54:19;;;;;;;12.97;5.37;;;;;;;22.48;51.81;157145.69;5033353;28;20449;-80
2023/10/11 11:56:46;;;;;;;6.50;4.37;;;;;;;22.50;51.19;157152.22;5031052;28;20856;-80
2023/10/11 11:59:17;;;;;;;4.70;3.90;;;;;;;22.44;51.60;157137.84;5031203;28;20485;-80
2023/10/11 12:01:46;;;;;;;11.23;5.10;;;;;;;22.43;51.76;157135.22;5028944;28;20448;-80
2023/10/11 12:04:20;;;;;;;10.17;3.87;;;;;;;22.49;52.06;157148.28;5036359;28;20533;-80